Terminal Aerodrome Forecast
Issued by NWS

Home | Current Version | Previous Version | Graphics & Text | Print | Product List | Glossary On
Versions: 1 2 3 4 5 6 7 8 9 10 11 12 13
964
FTUS43 KBIS 251720
TAFJMS
TAF
KJMS 251720Z 2518/2618 01013G21KT P6SM VCSH SCT080 BKN200
     FM252000 35012KT P6SM SCT100 BKN200
     FM260500 32004KT P6SM FEW130 SCT250=

USA.gov is the U.S. government's official web portal to all federal, state and local government web resources and services.